sensor_id;sensor_type;location;lat;lon;timestamp;P1;durP1;ratioP1;P2;durP2;ratioP2
3667;SDS011;24099;47.102;15.440;2023-02-15T00:01:39;11.15;;;3.15;;
3667;SDS011;24099;47.102;15.440;2023-02-15T00:04:09;12.20;;;4.32;;
3667;SDS011;24099;47.102;15.440;2023-02-15T00:06:39;7.22;;;3.42;;
3667;SDS011;24099;47.102;15.440;2023-02-15T00:09:07;8.48;;;3.88;;
3667;SDS011;24099;47.102;15.440;2023-02-15T00:11:38;11.00;;;3.33;;
3667;SDS011;24099;47.102;15.440;2023-02-15T00:14:06;10.98;;;4.38;;
3667;SDS011;24099;47.102;15.440;2023-02-15T00:16:35;10.90;;;4.22;;
3667;SDS011;24099;47.102;15.440;2023-02-15T00:19:05;6.60;;;3.42;;
3667;SDS011;24099;47.102;15.440;2023-02-15T00:21:33;8.82;;;4.18;;
3667;SDS011;24099;47.102;15.440;2023-02-15T00:24:03;9.13;;;3.97;;
3667;SDS011;24099;47.102;15.440;2023-02-15T00:26:32;8.77;;;3.78;;
3667;SDS011;24099;47.102;15.440;2023-02-15T00:29:01;4.45;;;2.78;;
3667;SDS011;24099;47.102;15.440;2023-02-15T00:31:29;9.30;;;3.17;;
3667;SDS011;24099;47.102;15.440;2023-02-15T00:34:01;6.32;;;3.70;;
3667;SDS011;24099;47.102;15.440;2023-02-15T00:36:30;12.98;;;3.40;;
3667;SDS011;24099;47.102;15.440;2023-02-15T00:38:58;9.57;;;2.85;;
3667;SDS011;24099;47.102;15.440;2023-02-15T00:41:28;4.28;;;2.63;;
3667;SDS011;24099;47.102;15.440;2023-02-15T00:43:56;12.48;;;4.43;;
3667;SDS011;24099;47.102;15.440;2023-02-15T00:46:26;7.97;;;3.88;;
3667;SDS011;24099;47.102;15.440;2023-02-15T00:48:54;8.25;;;3.53;;
3667;SDS011;24099;47.102;15.440;2023-02-15T00:51:22;5.95;;;3.53;;
3667;SDS011;24099;47.102;15.440;2023-02-15T00:53:59;7.93;;;4.10;;
3667;SDS011;24099;47.102;15.440;2023-02-15T00:56:28;11.90;;;3.78;;
3667;SDS011;24099;47.102;15.440;2023-02-15T00:58:56;10.20;;;4.72;;
3667;SDS011;24099;47.102;15.440;2023-02-15T01:01:24;7.97;;;3.78;;
3667;SDS011;24099;47.102;15.440;2023-02-15T01:03:52;9.98;;;4.72;;
3667;SDS011;24099;47.102;15.440;2023-02-15T01:06:20;8.77;;;3.65;;
3667;SDS011;24099;47.102;15.440;2023-02-15T01:08:48;13.05;;;4.07;;
3667;SDS011;24099;47.102;15.440;2023-02-15T01:11:18;8.65;;;3.83;;
3667;SDS011;24099;47.102;15.440;2023-02-15T01:13:50;8.90;;;3.65;;
3667;SDS011;24099;47.102;15.440;2023-02-15T01:16:18;15.73;;;3.78;;
3667;SDS011;24099;47.102;15.440;2023-02-15T01:18:47;10.02;;;4.38;;
3667;SDS011;24099;47.102;15.440;2023-02-15T01:21:15;8.20;;;4.93;;
3667;SDS011;24099;47.102;15.440;2023-02-15T01:23:45;8.18;;;4.38;;
3667;SDS011;24099;47.102;15.440;2023-02-15T01:26:13;8.00;;;4.57;;
3667;SDS011;24099;47.102;15.440;2023-02-15T01:28:44;12.00;;;4.43;;
3667;SDS011;24099;47.102;15.440;2023-02-15T01:31:12;9.20;;;4.47;;
3667;SDS011;24099;47.102;15.440;2023-02-15T01:33:44;13.82;;;4.15;;
3667;SDS011;24099;47.102;15.440;2023-02-15T01:36:13;4.43;;;3.65;;
3667;SDS011;24099;47.102;15.440;2023-02-15T01:38:42;8.32;;;3.78;;
3667;SDS011;24099;47.102;15.440;2023-02-15T01:41:10;8.27;;;3.35;;
3667;SDS011;24099;47.102;15.440;2023-02-15T01:43:50;7.43;;;3.70;;
3667;SDS011;24099;47.102;15.440;2023-02-15T01:46:22;5.97;;;3.83;;
3667;SDS011;24099;47.102;15.440;2023-02-15T01:48:56;10.18;;;3.58;;
3667;SDS011;24099;47.102;15.440;2023-02-15T01:51:28;9.43;;;4.05;;
3667;SDS011;24099;47.102;15.440;2023-02-15T01:54:01;12.25;;;4.28;;
3667;SDS011;24099;47.102;15.440;2023-02-15T01:56:35;10.40;;;4.03;;
3667;SDS011;24099;47.102;15.440;2023-02-15T01:59:09;9.60;;;4.15;;
3667;SDS011;24099;47.102;15.440;2023-02-15T02:01:41;7.15;;;3.65;;
3667;SDS011;24099;47.102;15.440;2023-02-15T02:04:11;10.68;;;4.30;;
3667;SDS011;24099;47.102;15.440;2023-02-15T02:06:44;7.07;;;3.67;;
3667;SDS011;24099;47.102;15.440;2023-02-15T02:09:15;7.30;;;2.72;;
3667;SDS011;24099;47.102;15.440;2023-02-15T02:11:43;8.35;;;4.90;;
3667;SDS011;24099;47.102;15.440;2023-02-15T02:14:14;7.97;;;3.92;;
3667;SDS011;24099;47.102;15.440;2023-02-15T02:16:46;7.50;;;4.60;;
3667;SDS011;24099;47.102;15.440;2023-02-15T02:19:24;4.90;;;3.65;;
3667;SDS011;24099;47.102;15.440;2023-02-15T02:25:40;8.40;;;3.78;;
3667;SDS011;24099;47.102;15.440;2023-02-15T02:31:34;5.47;;;3.25;;
3667;SDS011;24099;47.102;15.440;2023-02-15T02:34:20;4.93;;;2.60;;
3667;SDS011;24099;47.102;15.440;2023-02-15T02:36:57;9.18;;;4.15;;
3667;SDS011;24099;47.102;15.440;2023-02-15T02:39:30;6.18;;;4.05;;
3667;SDS011;24099;47.102;15.440;2023-02-15T02:42:07;10.60;;;4.65;;
3667;SDS011;24099;47.102;15.440;2023-02-15T02:44:41;7.82;;;4.18;;
3667;SDS011;24099;47.102;15.440;2023-02-15T02:47:13;9.82;;;4.32;;
3667;SDS011;24099;47.102;15.440;2023-02-15T02:49:51;7.20;;;3.58;;
3667;SDS011;24099;47.102;15.440;2023-02-15T02:52:35;8.23;;;3.50;;
3667;SDS011;24099;47.102;15.440;2023-02-15T02:55:06;7.60;;;4.70;;
3667;SDS011;24099;47.102;15.440;2023-02-15T02:57:40;9.13;;;4.10;;
3667;SDS011;24099;47.102;15.440;2023-02-15T03:00:14;12.88;;;5.13;;
3667;SDS011;24099;47.102;15.440;2023-02-15T03:02:44;7.35;;;4.30;;
3667;SDS011;24099;47.102;15.440;2023-02-15T03:05:16;6.50;;;4.18;;
3667;SDS011;24099;47.102;15.440;2023-02-15T03:07:49;9.15;;;3.92;;
3667;SDS011;24099;47.102;15.440;2023-02-15T03:10:22;5.57;;;3.67;;
3667;SDS011;24099;47.102;15.440;2023-02-15T03:12:51;11.02;;;3.72;;
3667;SDS011;24099;47.102;15.440;2023-02-15T03:15:20;6.28;;;3.42;;
3667;SDS011;24099;47.102;15.440;2023-02-15T03:17:54;12.25;;;4.13;;
3667;SDS011;24099;47.102;15.440;2023-02-15T03:20:30;6.90;;;2.78;;
3667;SDS011;24099;47.102;15.440;2023-02-15T03:23:02;6.22;;;3.88;;
3667;SDS011;24099;47.102;15.440;2023-02-15T03:25:36;10.68;;;3.17;;
3667;SDS011;24099;47.102;15.440;2023-02-15T03:28:10;7.07;;;3.33;;
3667;SDS011;24099;47.102;15.440;2023-02-15T03:30:42;7.03;;;4.03;;
3667;SDS011;24099;47.102;15.440;2023-02-15T03:33:15;4.32;;;3.15;;
3667;SDS011;24099;47.102;15.440;2023-02-15T03:35:49;5.28;;;2.83;;
3667;SDS011;24099;47.102;15.440;2023-02-15T03:38:26;9.43;;;3.65;;
3667;SDS011;24099;47.102;15.440;2023-02-15T03:40:56;10.02;;;4.40;;
3667;SDS011;24099;47.102;15.440;2023-02-15T03:43:40;6.78;;;3.55;;
3667;SDS011;24099;47.102;15.440;2023-02-15T03:46:16;8.73;;;3.95;;
3667;SDS011;24099;47.102;15.440;2023-02-15T03:48:51;10.45;;;2.80;;
3667;SDS011;24099;47.102;15.440;2023-02-15T03:51:24;3.90;;;2.65;;
3667;SDS011;24099;47.102;15.440;2023-02-15T03:54:04;8.85;;;3.47;;
3667;SDS011;24099;47.102;15.440;2023-02-15T03:56:34;6.45;;;3.50;;
3667;SDS011;24099;47.102;15.440;2023-02-15T03:59:04;5.15;;;3.10;;
3667;SDS011;24099;47.102;15.440;2023-02-15T04:01:53;9.88;;;3.78;;
3667;SDS011;24099;47.102;15.440;2023-02-15T04:04:31;4.13;;;3.10;;
3667;SDS011;24099;47.102;15.440;2023-02-15T04:07:02;6.90;;;2.95;;
3667;SDS011;24099;47.102;15.440;2023-02-15T04:09:32;6.63;;;3.80;;
3667;SDS011;24099;47.102;15.440;2023-02-15T04:12:18;9.25;;;4.55;;
3667;SDS011;24099;47.102;15.440;2023-02-15T04:14:46;5.47;;;3.63;;
3667;SDS011;24099;47.102;15.440;2023-02-15T04:17:31;7.45;;;3.10;;
3667;SDS011;24099;47.102;15.440;2023-02-15T04:19:59;6.82;;;2.90;;
3667;SDS011;24099;47.102;15.440;2023-02-15T04:22:49;7.68;;;3.17;;
3667;SDS011;24099;47.102;15.440;2023-02-15T04:25:34;9.68;;;4.43;;
3667;SDS011;24099;47.102;15.440;2023-02-15T04:28:01;9.98;;;4.30;;
3667;SDS011;24099;47.102;15.440;2023-02-15T04:30:29;11.65;;;4.50;;
3667;SDS011;24099;47.102;15.440;2023-02-15T04:32:57;9.65;;;4.38;;
3667;SDS011;24099;47.102;15.440;2023-02-15T04:35:24;25.17;;;5.28;;
3667;SDS011;24099;47.102;15.440;2023-02-15T04:37:54;8.98;;;3.50;;
3667;SDS011;24099;47.102;15.440;2023-02-15T04:40:23;5.10;;;3.95;;
3667;SDS011;24099;47.102;15.440;2023-02-15T04:42:50;6.47;;;3.00;;
3667;SDS011;24099;47.102;15.440;2023-02-15T04:45:18;7.40;;;3.67;;
3667;SDS011;24099;47.102;15.440;2023-02-15T04:47:46;12.15;;;4.05;;
3667;SDS011;24099;47.102;15.440;2023-02-15T04:50:14;6.93;;;4.00;;
3667;SDS011;24099;47.102;15.440;2023-02-15T04:52:42;7.18;;;3.83;;
3667;SDS011;24099;47.102;15.440;2023-02-15T04:55:11;6.40;;;3.47;;
3667;SDS011;24099;47.102;15.440;2023-02-15T04:57:39;7.55;;;4.03;;
3667;SDS011;24099;47.102;15.440;2023-02-15T05:00:07;6.72;;;3.60;;
3667;SDS011;24099;47.102;15.440;2023-02-15T05:02:35;5.72;;;4.07;;
3667;SDS011;24099;47.102;15.440;2023-02-15T05:05:03;6.38;;;2.95;;
3667;SDS011;24099;47.102;15.440;2023-02-15T05:07:31;8.65;;;4.25;;
3667;SDS011;24099;47.102;15.440;2023-02-15T05:09:59;6.95;;;3.80;;
3667;SDS011;24099;47.102;15.440;2023-02-15T05:12:27;11.27;;;4.03;;
3667;SDS011;24099;47.102;15.440;2023-02-15T05:14:59;10.80;;;5.18;;
3667;SDS011;24099;47.102;15.440;2023-02-15T05:17:28;7.47;;;3.97;;
3667;SDS011;24099;47.102;15.440;2023-02-15T05:19:58;13.60;;;3.67;;
3667;SDS011;24099;47.102;15.440;2023-02-15T05:22:25;8.38;;;3.47;;
3667;SDS011;24099;47.102;15.440;2023-02-15T05:24:55;11.50;;;4.60;;
3667;SDS011;24099;47.102;15.440;2023-02-15T05:27:44;9.45;;;4.13;;
3667;SDS011;24099;47.102;15.440;2023-02-15T05:30:29;5.75;;;3.25;;
3667;SDS011;24099;47.102;15.440;2023-02-15T05:33:02;4.32;;;3.22;;
3667;SDS011;24099;47.102;15.440;2023-02-15T05:35:30;11.88;;;4.50;;
3667;SDS011;24099;47.102;15.440;2023-02-15T05:37:57;8.18;;;3.50;;
3667;SDS011;24099;47.102;15.440;2023-02-15T05:40:25;10.48;;;4.70;;
3667;SDS011;24099;47.102;15.440;2023-02-15T05:42:55;8.50;;;3.60;;
3667;SDS011;24099;47.102;15.440;2023-02-15T05:45:24;9.68;;;3.95;;
3667;SDS011;24099;47.102;15.440;2023-02-15T05:47:53;9.50;;;4.40;;
3667;SDS011;24099;47.102;15.440;2023-02-15T05:50:20;8.23;;;3.00;;
3667;SDS011;24099;47.102;15.440;2023-02-15T05:52:48;9.18;;;3.83;;
3667;SDS011;24099;47.102;15.440;2023-02-15T05:55:17;5.00;;;3.33;;
3667;SDS011;24099;47.102;15.440;2023-02-15T05:57:44;5.40;;;3.45;;
3667;SDS011;24099;47.102;15.440;2023-02-15T06:00:15;7.18;;;3.75;;
3667;SDS011;24099;47.102;15.440;2023-02-15T06:02:43;15.65;;;3.75;;
3667;SDS011;24099;47.102;15.440;2023-02-15T06:05:10;10.00;;;3.95;;
3667;SDS011;24099;47.102;15.440;2023-02-15T06:07:42;6.15;;;4.38;;
3667;SDS011;24099;47.102;15.440;2023-02-15T06:10:10;6.05;;;3.05;;
3667;SDS011;24099;47.102;15.440;2023-02-15T06:12:38;10.55;;;4.47;;
3667;SDS011;24099;47.102;15.440;2023-02-15T06:15:05;11.93;;;4.85;;
3667;SDS011;24099;47.102;15.440;2023-02-15T06:17:35;10.85;;;4.25;;
3667;SDS011;24099;47.102;15.440;2023-02-15T06:20:03;8.73;;;3.65;;
3667;SDS011;24099;47.102;15.440;2023-02-15T06:22:33;6.13;;;2.70;;
3667;SDS011;24099;47.102;15.440;2023-02-15T06:25:00;7.22;;;3.80;;
3667;SDS011;24099;47.102;15.440;2023-02-15T06:27:30;9.27;;;4.13;;
3667;SDS011;24099;47.102;15.440;2023-02-15T06:29:57;10.48;;;4.07;;
3667;SDS011;24099;47.102;15.440;2023-02-15T06:32:26;9.60;;;2.97;;
3667;SDS011;24099;47.102;15.440;2023-02-15T06:34:55;8.77;;;4.28;;
3667;SDS011;24099;47.102;15.440;2023-02-15T06:37:23;11.20;;;4.47;;
3667;SDS011;24099;47.102;15.440;2023-02-15T06:39:50;7.57;;;3.53;;
3667;SDS011;24099;47.102;15.440;2023-02-15T06:42:18;6.65;;;4.07;;
3667;SDS011;24099;47.102;15.440;2023-02-15T06:44:47;7.72;;;3.45;;
3667;SDS011;24099;47.102;15.440;2023-02-15T06:47:15;8.95;;;4.13;;
3667;SDS011;24099;47.102;15.440;2023-02-15T06:49:42;9.80;;;3.40;;
3667;SDS011;24099;47.102;15.440;2023-02-15T06:52:12;5.43;;;3.70;;
3667;SDS011;24099;47.102;15.440;2023-02-15T06:54:41;11.38;;;4.70;;
3667;SDS011;24099;47.102;15.440;2023-02-15T06:57:09;7.45;;;3.65;;
3667;SDS011;24099;47.102;15.440;2023-02-15T06:59:38;8.15;;;3.28;;
3667;SDS011;24099;47.102;15.440;2023-02-15T07:02:08;11.80;;;4.15;;
3667;SDS011;24099;47.102;15.440;2023-02-15T07:04:37;11.30;;;4.75;;
3667;SDS011;24099;47.102;15.440;2023-02-15T07:07:07;8.27;;;4.25;;
3667;SDS011;24099;47.102;15.440;2023-02-15T07:09:37;8.23;;;4.18;;
3667;SDS011;24099;47.102;15.440;2023-02-15T07:12:06;9.05;;;4.93;;
3667;SDS011;24099;47.102;15.440;2023-02-15T07:14:54;10.18;;;4.55;;
3667;SDS011;24099;47.102;15.440;2023-02-15T07:17:24;11.65;;;5.28;;
3667;SDS011;24099;47.102;15.440;2023-02-15T07:19:53;11.57;;;5.38;;
3667;SDS011;24099;47.102;15.440;2023-02-15T07:22:22;8.18;;;4.22;;
3667;SDS011;24099;47.102;15.440;2023-02-15T07:24:53;9.57;;;4.68;;
3667;SDS011;24099;47.102;15.440;2023-02-15T07:27:20;12.55;;;4.90;;
3667;SDS011;24099;47.102;15.440;2023-02-15T07:29:48;12.05;;;4.80;;
3667;SDS011;24099;47.102;15.440;2023-02-15T07:32:16;9.02;;;3.83;;
3667;SDS011;24099;47.102;15.440;2023-02-15T07:34:43;8.75;;;5.18;;
3667;SDS011;24099;47.102;15.440;2023-02-15T07:37:11;9.32;;;4.47;;
3667;SDS011;24099;47.102;15.440;2023-02-15T07:39:41;17.83;;;5.28;;
3667;SDS011;24099;47.102;15.440;2023-02-15T07:42:11;12.98;;;5.40;;
3667;SDS011;24099;47.102;15.440;2023-02-15T07:44:43;6.45;;;4.22;;
3667;SDS011;24099;47.102;15.440;2023-02-15T07:47:10;7.80;;;4.97;;
3667;SDS011;24099;47.102;15.440;2023-02-15T07:49:38;10.32;;;5.22;;
3667;SDS011;24099;47.102;15.440;2023-02-15T07:52:07;9.57;;;3.97;;
3667;SDS011;24099;47.102;15.440;2023-02-15T07:54:35;18.38;;;5.60;;
3667;SDS011;24099;47.102;15.440;2023-02-15T07:57:03;11.02;;;5.03;;
3667;SDS011;24099;47.102;15.440;2023-02-15T07:59:32;12.18;;;5.07;;
3667;SDS011;24099;47.102;15.440;2023-02-15T08:02:01;13.23;;;6.07;;
3667;SDS011;24099;47.102;15.440;2023-02-15T08:04:31;13.48;;;5.13;;
3667;SDS011;24099;47.102;15.440;2023-02-15T08:06:59;11.05;;;5.32;;
3667;SDS011;24099;47.102;15.440;2023-02-15T08:09:28;12.80;;;5.50;;
3667;SDS011;24099;47.102;15.440;2023-02-15T08:11:59;9.82;;;4.85;;
3667;SDS011;24099;47.102;15.440;2023-02-15T08:14:30;8.75;;;4.30;;
3667;SDS011;24099;47.102;15.440;2023-02-15T08:17:01;7.70;;;5.28;;
3667;SDS011;24099;47.102;15.440;2023-02-15T08:19:32;11.50;;;6.65;;
3667;SDS011;24099;47.102;15.440;2023-02-15T08:22:02;9.05;;;5.07;;
3667;SDS011;24099;47.102;15.440;2023-02-15T08:24:33;9.52;;;5.50;;
3667;SDS011;24099;47.102;15.440;2023-02-15T08:27:04;6.47;;;4.45;;
3667;SDS011;24099;47.102;15.440;2023-02-15T08:29:35;10.85;;;5.45;;
3667;SDS011;24099;47.102;15.440;2023-02-15T08:32:06;12.90;;;5.13;;
3667;SDS011;24099;47.102;15.440;2023-02-15T08:34:38;13.10;;;5.75;;
3667;SDS011;24099;47.102;15.440;2023-02-15T08:37:07;14.40;;;5.75;;
3667;SDS011;24099;47.102;15.440;2023-02-15T08:39:35;12.10;;;5.25;;
3667;SDS011;24099;47.102;15.440;2023-02-15T08:42:04;12.07;;;5.85;;
3667;SDS011;24099;47.102;15.440;2023-02-15T08:44:35;8.98;;;5.22;;
3667;SDS011;24099;47.102;15.440;2023-02-15T08:47:04;11.07;;;4.15;;
3667;SDS011;24099;47.102;15.440;2023-02-15T08:49:34;11.82;;;5.00;;
3667;SDS011;24099;47.102;15.440;2023-02-15T08:52:02;7.95;;;3.95;;
3667;SDS011;24099;47.102;15.440;2023-02-15T08:54:35;7.97;;;4.47;;
3667;SDS011;24099;47.102;15.440;2023-02-15T08:57:04;9.52;;;5.05;;
3667;SDS011;24099;47.102;15.440;2023-02-15T08:59:32;8.50;;;4.43;;
3667;SDS011;24099;47.102;15.440;2023-02-15T09:02:01;10.52;;;6.32;;
3667;SDS011;24099;47.102;15.440;2023-02-15T09:04:29;11.43;;;5.65;;
3667;SDS011;24099;47.102;15.440;2023-02-15T09:06:57;13.80;;;6.45;;
3667;SDS011;24099;47.102;15.440;2023-02-15T09:09:26;9.43;;;4.07;;
3667;SDS011;24099;47.102;15.440;2023-02-15T09:11:55;6.97;;;4.13;;
3667;SDS011;24099;47.102;15.440;2023-02-15T09:14:24;16.70;;;6.05;;
3667;SDS011;24099;47.102;15.440;2023-02-15T09:16:53;8.38;;;5.18;;
3667;SDS011;24099;47.102;15.440;2023-02-15T09:19:23;8.20;;;5.07;;
3667;SDS011;24099;47.102;15.440;2023-02-15T09:21:53;10.65;;;4.85;;
3667;SDS011;24099;47.102;15.440;2023-02-15T09:24:20;10.82;;;5.18;;
3667;SDS011;24099;47.102;15.440;2023-02-15T09:26:48;10.18;;;5.30;;
3667;SDS011;24099;47.102;15.440;2023-02-15T09:29:16;10.25;;;5.25;;
3667;SDS011;24099;47.102;15.440;2023-02-15T09:31:47;10.52;;;5.18;;
3667;SDS011;24099;47.102;15.440;2023-02-15T09:34:20;10.43;;;5.90;;
3667;SDS011;24099;47.102;15.440;2023-02-15T09:36:51;13.95;;;5.25;;
3667;SDS011;24099;47.102;15.440;2023-02-15T09:39:19;9.40;;;5.63;;
3667;SDS011;24099;47.102;15.440;2023-02-15T09:44:49;9.82;;;6.07;;
3667;SDS011;24099;47.102;15.440;2023-02-15T09:50:33;10.90;;;5.63;;
3667;SDS011;24099;47.102;15.440;2023-02-15T09:53:18;10.90;;;6.05;;
3667;SDS011;24099;47.102;15.440;2023-02-15T09:56:05;9.00;;;5.13;;
3667;SDS011;24099;47.102;15.440;2023-02-15T09:58:44;10.50;;;5.40;;
3667;SDS011;24099;47.102;15.440;2023-02-15T10:01:25;10.60;;;5.28;;
3667;SDS011;24099;47.102;15.440;2023-02-15T10:04:11;11.93;;;4.63;;
3667;SDS011;24099;47.102;15.440;2023-02-15T10:06:59;14.40;;;6.28;;
3667;SDS011;24099;47.102;15.440;2023-02-15T10:09:39;14.25;;;6.97;;
3667;SDS011;24099;47.102;15.440;2023-02-15T10:12:30;16.60;;;7.13;;
3667;SDS011;24099;47.102;15.440;2023-02-15T10:15:12;18.92;;;7.18;;
3667;SDS011;24099;47.102;15.440;2023-02-15T10:20:49;21.10;;;8.18;;
3667;SDS011;24099;47.102;15.440;2023-02-15T10:23:32;24.85;;;7.78;;
3667;SDS011;24099;47.102;15.440;2023-02-15T10:26:12;17.80;;;7.07;;
3667;SDS011;24099;47.102;15.440;2023-02-15T10:28:46;20.60;;;7.55;;
3667;SDS011;24099;47.102;15.440;2023-02-15T10:31:23;14.13;;;6.07;;
3667;SDS011;24099;47.102;15.440;2023-02-15T10:33:57;20.25;;;6.60;;
3667;SDS011;24099;47.102;15.440;2023-02-15T10:36:38;13.55;;;5.38;;
3667;SDS011;24099;47.102;15.440;2023-02-15T10:39:36;17.42;;;5.78;;
3667;SDS011;24099;47.102;15.440;2023-02-15T10:42:15;12.45;;;6.22;;
3667;SDS011;24099;47.102;15.440;2023-02-15T10:45:01;12.57;;;5.82;;
3667;SDS011;24099;47.102;15.440;2023-02-15T10:47:45;13.40;;;6.97;;
3667;SDS011;24099;47.102;15.440;2023-02-15T10:50:26;11.63;;;5.22;;
3667;SDS011;24099;47.102;15.440;2023-02-15T10:53:10;14.75;;;5.90;;
3667;SDS011;24099;47.102;15.440;2023-02-15T10:55:51;19.40;;;6.35;;
3667;SDS011;24099;47.102;15.440;2023-02-15T10:58:36;19.15;;;5.95;;
3667;SDS011;24099;47.102;15.440;2023-02-15T11:01:14;26.88;;;6.82;;
3667;SDS011;24099;47.102;15.440;2023-02-15T11:03:53;22.48;;;7.55;;
3667;SDS011;24099;47.102;15.440;2023-02-15T11:06:41;18.20;;;7.20;;
3667;SDS011;24099;47.102;15.440;2023-02-15T11:09:16;15.30;;;6.80;;
3667;SDS011;24099;47.102;15.440;2023-02-15T11:11:50;20.17;;;7.28;;
3667;SDS011;24099;47.102;15.440;2023-02-15T11:14:22;17.60;;;6.68;;
3667;SDS011;24099;47.102;15.440;2023-02-15T11:17:01;14.68;;;6.43;;
3667;SDS011;24099;47.102;15.440;2023-02-15T11:19:35;17.88;;;6.70;;
3667;SDS011;24099;47.102;15.440;2023-02-15T11:22:09;19.13;;;6.80;;
3667;SDS011;24099;47.102;15.440;2023-02-15T11:24:39;20.20;;;7.07;;
3667;SDS011;24099;47.102;15.440;2023-02-15T11:27:18;18.13;;;7.15;;
3667;SDS011;24099;47.102;15.440;2023-02-15T11:29:52;20.10;;;6.78;;
3667;SDS011;24099;47.102;15.440;2023-02-15T11:32:26;19.63;;;7.63;;
3667;SDS011;24099;47.102;15.440;2023-02-15T11:35:01;14.10;;;6.28;;
3667;SDS011;24099;47.102;15.440;2023-02-15T11:37:38;14.75;;;6.60;;
3667;SDS011;24099;47.102;15.440;2023-02-15T11:40:17;17.48;;;7.35;;
3667;SDS011;24099;47.102;15.440;2023-02-15T11:42:51;15.10;;;6.65;;
3667;SDS011;24099;47.102;15.440;2023-02-15T11:45:26;20.23;;;7.20;;
3667;SDS011;24099;47.102;15.440;2023-02-15T11:48:05;15.45;;;6.22;;
3667;SDS011;24099;47.102;15.440;2023-02-15T11:50:36;16.80;;;7.30;;
3667;SDS011;24099;47.102;15.440;2023-02-15T11:53:06;19.55;;;7.45;;
3667;SDS011;24099;47.102;15.440;2023-02-15T11:55:39;18.80;;;7.20;;
3667;SDS011;24099;47.102;15.440;2023-02-15T11:58:16;22.33;;;8.23;;
3667;SDS011;24099;47.102;15.440;2023-02-15T12:00:56;21.00;;;7.68;;
3667;SDS011;24099;47.102;15.440;2023-02-15T12:03:39;13.13;;;6.03;;
3667;SDS011;24099;47.102;15.440;2023-02-15T12:06:17;16.60;;;7.10;;
3667;SDS011;24099;47.102;15.440;2023-02-15T12:08:52;16.10;;;6.20;;
3667;SDS011;24099;47.102;15.440;2023-02-15T12:11:31;15.75;;;6.28;;
3667;SDS011;24099;47.102;15.440;2023-02-15T12:14:04;15.57;;;7.60;;
3667;SDS011;24099;47.102;15.440;2023-02-15T12:16:40;15.73;;;7.05;;
3667;SDS011;24099;47.102;15.440;2023-02-15T12:19:22;19.48;;;7.88;;
3667;SDS011;24099;47.102;15.440;2023-02-15T12:21:56;14.73;;;6.32;;
3667;SDS011;24099;47.102;15.440;2023-02-15T12:24:27;16.95;;;7.15;;
3667;SDS011;24099;47.102;15.440;2023-02-15T12:27:01;19.23;;;6.88;;
3667;SDS011;24099;47.102;15.440;2023-02-15T12:29:39;17.70;;;6.70;;
3667;SDS011;24099;47.102;15.440;2023-02-15T12:32:09;19.52;;;6.88;;
3667;SDS011;24099;47.102;15.440;2023-02-15T12:34:43;18.42;;;6.63;;
3667;SDS011;24099;47.102;15.440;2023-02-15T12:37:14;17.58;;;7.63;;
3667;SDS011;24099;47.102;15.440;2023-02-15T12:39:54;23.63;;;7.30;;
3667;SDS011;24099;47.102;15.440;2023-02-15T12:42:23;21.45;;;7.45;;
3667;SDS011;24099;47.102;15.440;2023-02-15T12:44:57;24.13;;;7.07;;
3667;SDS011;24099;47.102;15.440;2023-02-15T12:47:26;21.00;;;7.63;;
3667;SDS011;24099;47.102;15.440;2023-02-15T12:50:07;20.15;;;7.88;;
3667;SDS011;24099;47.102;15.440;2023-02-15T12:52:43;25.85;;;7.63;;
3667;SDS011;24099;47.102;15.440;2023-02-15T12:55:18;14.85;;;6.93;;
3667;SDS011;24099;47.102;15.440;2023-02-15T12:57:49;21.40;;;7.38;;
3667;SDS011;24099;47.102;15.440;2023-02-15T13:00:44;20.83;;;7.18;;
3667;SDS011;24099;47.102;15.440;2023-02-15T13:03:16;16.73;;;7.30;;
3667;SDS011;24099;47.102;15.440;2023-02-15T13:05:48;21.00;;;7.55;;
3667;SDS011;24099;47.102;15.440;2023-02-15T13:08:20;20.17;;;7.78;;
3667;SDS011;24099;47.102;15.440;2023-02-15T13:10:54;17.80;;;7.15;;
3667;SDS011;24099;47.102;15.440;2023-02-15T13:13:30;22.25;;;8.52;;
3667;SDS011;24099;47.102;15.440;2023-02-15T13:16:01;21.33;;;7.47;;
3667;SDS011;24099;47.102;15.440;2023-02-15T13:18:33;18.40;;;6.57;;
3667;SDS011;24099;47.102;15.440;2023-02-15T13:21:06;26.17;;;7.72;;
3667;SDS011;24099;47.102;15.440;2023-02-15T13:23:44;25.55;;;6.65;;
3667;SDS011;24099;47.102;15.440;2023-02-15T13:26:15;19.38;;;7.13;;
3667;SDS011;24099;47.102;15.440;2023-02-15T13:28:46;20.30;;;7.47;;
3667;SDS011;24099;47.102;15.440;2023-02-15T13:31:19;22.80;;;7.95;;
3667;SDS011;24099;47.102;15.440;2023-02-15T13:33:50;18.48;;;6.60;;
3667;SDS011;24099;47.102;15.440;2023-02-15T13:36:24;24.08;;;8.40;;
3667;SDS011;24099;47.102;15.440;2023-02-15T13:39:01;18.33;;;6.00;;
3667;SDS011;24099;47.102;15.440;2023-02-15T13:41:39;20.80;;;7.55;;
3667;SDS011;24099;47.102;15.440;2023-02-15T13:44:20;23.30;;;7.28;;
3667;SDS011;24099;47.102;15.440;2023-02-15T13:47:05;21.15;;;7.13;;
3667;SDS011;24099;47.102;15.440;2023-02-15T13:49:47;25.38;;;7.10;;
3667;SDS011;24099;47.102;15.440;2023-02-15T13:52:27;17.95;;;8.13;;
3667;SDS011;24099;47.102;15.440;2023-02-15T13:57:57;18.70;;;6.70;;
3667;SDS011;24099;47.102;15.440;2023-02-15T14:00:44;18.20;;;6.40;;
3667;SDS011;24099;47.102;15.440;2023-02-15T14:03:38;23.38;;;7.38;;
3667;SDS011;24099;47.102;15.440;2023-02-15T14:06:34;21.38;;;6.82;;
3667;SDS011;24099;47.102;15.440;2023-02-15T14:09:20;17.23;;;6.82;;
3667;SDS011;24099;47.102;15.440;2023-02-15T14:11:58;16.60;;;7.40;;
3667;SDS011;24099;47.102;15.440;2023-02-15T14:14:50;23.50;;;6.72;;
3667;SDS011;24099;47.102;15.440;2023-02-15T14:17:41;18.52;;;7.93;;
3667;SDS011;24099;47.102;15.440;2023-02-15T14:20:21;19.33;;;6.85;;
3667;SDS011;24099;47.102;15.440;2023-02-15T14:22:59;16.98;;;6.82;;
3667;SDS011;24099;47.102;15.440;2023-02-15T14:25:38;21.90;;;6.45;;
3667;SDS011;24099;47.102;15.440;2023-02-15T14:28:11;20.65;;;6.50;;
3667;SDS011;24099;47.102;15.440;2023-02-15T14:30:44;19.55;;;6.82;;
3667;SDS011;24099;47.102;15.440;2023-02-15T14:33:24;20.90;;;6.72;;
3667;SDS011;24099;47.102;15.440;2023-02-15T14:35:59;21.40;;;6.28;;
3667;SDS011;24099;47.102;15.440;2023-02-15T14:38:36;21.17;;;7.55;;
3667;SDS011;24099;47.102;15.440;2023-02-15T14:41:15;21.52;;;7.40;;
3667;SDS011;24099;47.102;15.440;2023-02-15T14:43:49;23.80;;;7.32;;
3667;SDS011;24099;47.102;15.440;2023-02-15T14:46:25;24.52;;;7.32;;
3667;SDS011;24099;47.102;15.440;2023-02-15T14:49:04;13.57;;;6.22;;
3667;SDS011;24099;47.102;15.440;2023-02-15T14:51:57;23.80;;;7.15;;
3667;SDS011;24099;47.102;15.440;2023-02-15T14:57:22;21.33;;;6.50;;
3667;SDS011;24099;47.102;15.440;2023-02-15T14:59:53;18.85;;;6.38;;
3667;SDS011;24099;47.102;15.440;2023-02-15T15:02:29;21.65;;;7.53;;
3667;SDS011;24099;47.102;15.440;2023-02-15T15:05:14;13.90;;;5.72;;
3667;SDS011;24099;47.102;15.440;2023-02-15T15:07:49;13.82;;;6.18;;
3667;SDS011;24099;47.102;15.440;2023-02-15T15:10:33;21.33;;;6.20;;
3667;SDS011;24099;47.102;15.440;2023-02-15T15:18:54;11.40;;;5.63;;
3667;SDS011;24099;47.102;15.440;2023-02-15T15:33:25;18.33;;;5.85;;
3667;SDS011;24099;47.102;15.440;2023-02-15T15:36:18;13.32;;;5.28;;
3667;SDS011;24099;47.102;15.440;2023-02-15T15:39:11;16.60;;;6.03;;
3667;SDS011;24099;47.102;15.440;2023-02-15T15:41:56;17.02;;;5.47;;
3667;SDS011;24099;47.102;15.440;2023-02-15T15:47:37;9.85;;;5.03;;
3667;SDS011;24099;47.102;15.440;2023-02-15T15:50:22;11.15;;;4.70;;
3667;SDS011;24099;47.102;15.440;2023-02-15T15:52:50;24.35;;;6.60;;
3667;SDS011;24099;47.102;15.440;2023-02-15T15:55:20;11.77;;;5.45;;
3667;SDS011;24099;47.102;15.440;2023-02-15T15:57:53;11.68;;;6.93;;
3667;SDS011;24099;47.102;15.440;2023-02-15T16:00:31;9.30;;;5.07;;